Time;durP1;ratioP1;P1;durP2;ratioP2;P2;SDS_P1;SDS_P2;PMS_P1;PMS_P2;Temp;Humidity;BMP_temperature;BMP_pressure;BME280_temperature;BME280_humidity;BME280_pressure;Samples;Min_cycle;Max_cycle;Signal;HPM_P1;HPM_P2
2021/12/21 00:01:48;;;;;;;12.07;5.18;;;;;;;-2.43;70.83;100000.19;5117342;28;20400;-75
2021/12/21 00:04:15;;;;;;;13.95;5.40;;;;;;;-2.44;69.99;100004.59;5116845;28;20051;-75
2021/12/21 00:06:43;;;;;;;15.35;6.28;;;;;;;-2.37;70.62;99998.41;5117380;28;20039;-75
2021/12/21 00:09:12;;;;;;;15.43;5.90;;;;;;;-2.39;69.37;100002.81;5117322;28;20400;-74
2021/12/21 00:11:40;;;;;;;12.82;5.72;;;;;;;-2.46;69.78;99998.41;5117250;28;20039;-75
2021/12/21 00:14:17;;;;;;;14.05;5.50;;;;;;;-2.40;70.23;99997.53;5116887;28;20043;-74
2021/12/21 00:19:53;;;;;;;13.35;5.80;;;;;;;-2.61;70.26;100009.88;5117030;28;20056;-74
2021/12/21 00:22:57;;;;;;;12.63;5.57;;;;;;;-2.51;70.64;100013.41;5118337;28;20101;-74
2021/12/21 00:25:23;;;;;;;14.32;5.78;;;;;;;-2.52;70.71;100009.88;5117016;28;20442;-75
2021/12/21 00:27:52;;;;;;;14.27;6.20;;;;;;;-2.50;70.63;100021.34;5116062;28;20359;-75
2021/12/21 00:30:20;;;;;;;13.32;5.90;;;;;;;-2.47;70.47;100017.81;5116765;28;20063;-75
2021/12/21 00:32:47;;;;;;;12.82;5.60;;;;;;;-2.50;69.26;100012.53;5117110;28;20109;-75
2021/12/21 00:35:15;;;;;;;12.32;4.70;;;;;;;-2.52;70.10;100020.47;5116444;28;20074;-75
2021/12/21 00:37:43;;;;;;;14.57;4.90;;;;;;;-2.59;70.41;100024.00;5116704;28;20488;-75
2021/12/21 00:40:12;;;;;;;14.77;5.68;;;;;;;-2.58;70.47;100023.09;5100449;28;20069;-75
2021/12/21 00:42:41;;;;;;;12.13;5.25;;;;;;;-2.58;70.35;100019.59;5115645;28;20044;-76
2021/12/21 00:45:09;;;;;;;14.27;5.88;;;;;;;-2.51;70.40;100027.50;5116382;28;20054;-75
2021/12/21 00:47:41;;;;;;;17.23;5.65;;;;;;;-2.66;70.65;100036.31;5116598;28;20502;-75
2021/12/21 00:50:16;;;;;;;16.30;5.85;;;;;;;-2.70;70.82;100038.97;5116405;28;20078;-75
2021/12/21 00:52:46;;;;;;;12.40;5.22;;;;;;;-2.69;71.00;100040.75;5116289;28;20039;-75
2021/12/21 00:55:13;;;;;;;13.20;5.57;;;;;;;-2.71;70.60;100039.84;5116430;28;20060;-75
2021/12/21 00:57:42;;;;;;;13.43;5.93;;;;;;;-2.69;70.23;100046.88;5116490;28;20488;-75
2021/12/21 01:00:12;;;;;;;13.43;5.07;;;;;;;-2.69;71.33;100046.88;5116339;28;20072;-74
2021/12/21 01:02:41;;;;;;;13.68;5.47;;;;;;;-2.78;71.29;100058.38;5115780;28;20043;-74
2021/12/21 01:05:16;;;;;;;13.05;5.05;;;;;;;-2.71;70.83;100056.59;5116149;28;20048;-75
2021/12/21 01:07:48;;;;;;;11.88;5.28;;;;;;;-2.81;71.53;100053.06;5117340;28;20082;-75
2021/12/21 01:13:31;;;;;;;13.15;5.40;;;;;;;-2.81;71.82;100066.28;5116191;28;20048;-75
2021/12/21 01:16:06;;;;;;;12.65;5.45;;;;;;;-2.80;71.40;100060.13;5116438;28;20488;-74
2021/12/21 01:18:39;;;;;;;12.40;5.20;;;;;;;-2.87;71.18;100058.31;5116243;28;20044;-76
2021/12/21 01:21:13;;;;;;;15.30;5.95;;;;;;;-2.86;71.20;100062.72;5103829;28;20048;-75
2021/12/21 01:26:39;;;;;;;12.93;5.60;;;;;;;-2.82;70.87;100063.63;5053595;28;20142;-75
2021/12/21 01:29:17;;;;;;;15.82;5.57;;;;;;;-2.74;70.81;100068.94;5054398;28;20049;-75
2021/12/21 01:31:53;;;;;;;12.23;5.65;;;;;;;-2.79;71.24;100064.53;5053065;28;20067;-74
2021/12/21 01:34:33;;;;;;;13.93;5.68;;;;;;;-2.76;71.10;100068.94;5052380;28;20045;-74
2021/12/21 01:37:06;;;;;;;15.82;6.03;;;;;;;-2.75;70.38;100061.88;5052883;28;20063;-76
2021/12/21 01:39:54;;;;;;;15.02;6.00;;;;;;;-2.65;70.82;100061.91;5054370;28;20048;-77
2021/12/21 01:42:32;;;;;;;14.57;5.82;;;;;;;-2.71;70.58;100066.31;5070487;28;20053;-76
2021/12/21 01:50:31;;;;;;;11.90;5.25;;;;;;;-2.67;69.52;100068.06;5073423;28;20056;-76
2021/12/21 01:52:58;;;;;;;13.68;5.38;;;;;;;-2.73;70.57;100061.00;5072787;28;20048;-76
2021/12/21 01:55:25;;;;;;;11.27;5.18;;;;;;;-2.73;70.28;100068.94;5071916;28;20064;-76
2021/12/21 01:57:53;;;;;;;14.52;5.25;;;;;;;-2.72;69.94;100060.13;5072434;28;20174;-76
2021/12/21 02:00:22;;;;;;;15.60;4.53;;;;;;;-2.73;70.15;100063.63;5071819;28;20582;-76
2021/12/21 02:02:50;;;;;;;14.27;5.35;;;;;;;-2.64;69.41;100058.38;5073125;28;20065;-76
2021/12/21 02:05:17;;;;;;;12.98;5.22;;;;;;;-2.66;69.74;100064.53;5074453;28;20047;-76
2021/12/21 02:07:45;;;;;;;12.27;4.85;;;;;;;-2.68;69.46;100053.94;5074360;28;20040;-76
2021/12/21 02:10:12;;;;;;;11.95;4.70;;;;;;;-2.75;69.61;100057.47;5074171;28;20049;-78
2021/12/21 02:12:40;;;;;;;10.88;4.20;;;;;;;-2.79;69.29;100061.88;5074277;28;20044;-76
2021/12/21 02:15:08;;;;;;;10.45;4.43;;;;;;;-2.72;69.61;100059.25;5073856;28;20048;-76
2021/12/21 02:18:25;;;;;;;9.93;3.95;;;;;;;-2.68;68.81;100063.66;5074212;28;20051;-76
2021/12/21 02:20:56;;;;;;;10.27;4.35;;;;;;;-2.68;69.11;100072.47;5073750;28;20051;-76
2021/12/21 02:23:29;;;;;;;11.35;4.70;;;;;;;-2.65;69.40;100069.84;5074345;28;20052;-77
2021/12/21 02:26:17;;;;;;;13.32;4.68;;;;;;;-2.71;69.10;100080.38;5074501;28;20044;-76
2021/12/21 02:29:12;;;;;;;14.57;4.50;;;;;;;-2.69;70.21;100069.81;5074345;28;20051;-76
2021/12/21 02:31:42;;;;;;;8.85;4.00;;;;;;;-2.61;69.54;100081.28;5073818;28;20102;-76
2021/12/21 02:34:10;;;;;;;10.68;4.40;;;;;;;-2.60;69.16;100084.84;5073819;28;20052;-76
2021/12/21 02:36:39;;;;;;;9.98;4.20;;;;;;;-2.64;68.84;100084.84;5073645;28;20056;-76
2021/12/21 02:39:08;;;;;;;11.10;4.30;;;;;;;-2.64;69.07;100081.28;5066365;28;20041;-76
2021/12/21 02:41:36;;;;;;;11.40;4.75;;;;;;;-2.63;69.36;100080.41;5063974;28;20049;-77
2021/12/21 02:44:04;;;;;;;11.23;4.97;;;;;;;-2.69;68.85;100086.56;5073405;28;20048;-77
2021/12/21 02:46:32;;;;;;;9.55;4.47;;;;;;;-2.69;68.26;100083.91;5073689;28;20048;-77
2021/12/21 02:49:00;;;;;;;10.63;4.28;;;;;;;-2.70;68.91;100089.22;5073765;28;20043;-76
2021/12/21 02:51:27;;;;;;;14.25;4.88;;;;;;;-2.75;69.29;100086.56;5073416;28;20044;-77
2021/12/21 02:53:56;;;;;;;11.98;5.30;;;;;;;-2.74;69.69;100092.75;5073515;28;20048;-76
2021/12/21 02:56:24;;;;;;;11.50;4.82;;;;;;;-2.78;69.76;100086.56;5073424;28;20102;-76
2021/12/21 02:58:51;;;;;;;11.93;4.80;;;;;;;-2.83;69.86;100093.59;5073127;28;20044;-77
2021/12/21 03:01:19;;;;;;;11.85;5.03;;;;;;;-2.81;69.52;100098.03;5073204;28;20102;-77
2021/12/21 03:03:47;;;;;;;10.93;4.50;;;;;;;-2.80;70.18;100096.25;5073381;28;20501;-77
2021/12/21 03:06:35;;;;;;;11.02;4.57;;;;;;;-2.73;69.99;100090.09;5072776;28;20052;-77
2021/12/21 03:09:13;;;;;;;10.00;4.40;;;;;;;-2.84;69.55;100099.75;5073278;28;20045;-77
2021/12/21 03:11:48;;;;;;;13.20;4.97;;;;;;;-2.69;69.63;100097.13;5074599;28;20051;-82
2021/12/21 03:14:16;;;;;;;12.68;4.78;;;;;;;-2.74;70.09;100096.25;5074529;28;20048;-76
2021/12/21 03:16:44;;;;;;;10.32;4.53;;;;;;;-2.77;69.87;100104.19;5073191;28;20049;-76
2021/12/21 03:19:12;;;;;;;9.13;4.32;;;;;;;-2.74;69.54;100098.91;5073070;28;20055;-76
2021/12/21 03:21:40;;;;;;;12.88;4.95;;;;;;;-2.71;69.33;100098.03;5073140;28;20047;-76
2021/12/21 03:24:09;;;;;;;10.35;4.70;;;;;;;-2.77;69.74;100105.09;5072950;28;20052;-76
2021/12/21 03:26:38;;;;;;;11.48;4.70;;;;;;;-2.83;69.79;100101.53;5073305;28;20070;-76
2021/12/21 03:29:06;;;;;;;10.82;4.40;;;;;;;-2.71;69.93;100098.03;5072832;28;20063;-76
2021/12/21 03:31:34;;;;;;;10.02;4.65;;;;;;;-2.70;69.75;100090.09;5073138;28;20101;-76
2021/12/21 03:34:01;;;;;;;9.48;4.28;;;;;;;-2.70;69.22;100099.81;5073127;28;20052;-76
2021/12/21 03:36:29;;;;;;;10.38;4.50;;;;;;;-2.80;69.33;100096.25;5073067;28;20044;-76
2021/12/21 03:39:02;;;;;;;11.18;4.57;;;;;;;-2.85;68.94;100096.25;5067136;28;20044;-76
2021/12/21 03:41:31;;;;;;;12.35;5.32;;;;;;;-2.92;68.48;100100.63;5064529;28;20044;-77
2021/12/21 03:44:01;;;;;;;13.32;5.07;;;;;;;-2.98;67.46;100094.44;5072601;28;20448;-77
2021/12/21 03:46:28;;;;;;;10.35;4.25;;;;;;;-3.12;68.08;100092.63;5072843;28;20060;-77
2021/12/21 03:48:56;;;;;;;10.48;4.28;;;;;;;-3.03;67.42;100105.00;5073139;28;20120;-77
2021/12/21 03:51:24;;;;;;;13.98;4.22;;;;;;;-2.96;67.16;100097.97;5112455;28;20056;-76
2021/12/21 03:53:52;;;;;;;10.43;4.45;;;;;;;-3.12;66.67;100103.22;5113476;28;20044;-76
2021/12/21 03:56:36;;;;;;;8.73;3.88;;;;;;;-2.99;66.46;100108.53;5113024;28;20096;-76
2021/12/21 03:59:05;;;;;;;9.80;4.32;;;;;;;-3.15;66.68;100113.78;5114396;28;20108;-77
2021/12/21 04:01:33;;;;;;;8.20;3.60;;;;;;;-3.22;65.55;100118.13;5113314;28;20051;-76
2021/12/21 04:04:00;;;;;;;10.05;4.18;;;;;;;-3.31;67.05;100123.38;5113361;28;20052;-77
2021/12/21 04:06:28;;;;;;;12.32;3.65;;;;;;;-3.19;65.98;100119.91;5113302;28;20040;-76
2021/12/21 04:08:55;;;;;;;11.60;4.10;;;;;;;-3.20;66.31;100116.38;5112535;28;20051;-77
2021/12/21 04:11:23;;;;;;;8.82;4.00;;;;;;;-3.09;65.65;100118.16;5092540;28;20090;-76
2021/12/21 04:13:50;;;;;;;10.40;3.90;;;;;;;-3.10;66.48;100132.25;5092820;28;20043;-76
2021/12/21 04:16:19;;;;;;;11.20;5.13;;;;;;;-3.17;65.84;100120.81;5092969;28;20048;-76
2021/12/21 04:18:47;;;;;;;11.88;5.20;;;;;;;-3.10;66.88;100134.91;5094653;28;20145;-76
2021/12/21 04:21:15;;;;;;;9.63;3.85;;;;;;;-3.25;66.26;100138.41;5096486;28;20048;-76
2021/12/21 04:23:43;;;;;;;9.55;4.20;;;;;;;-3.24;66.79;100140.16;5096054;28;20040;-75
2021/12/21 04:26:11;;;;;;;10.05;4.20;;;;;;;-3.26;66.76;100142.78;5096406;28;20044;-76
2021/12/21 04:28:39;;;;;;;9.65;3.92;;;;;;;-3.23;67.38;100145.44;5096600;28;20063;-76
2021/12/21 04:31:07;;;;;;;8.93;4.18;;;;;;;-3.18;65.86;100155.13;5096379;28;20408;-76
2021/12/21 04:33:36;;;;;;;9.63;3.95;;;;;;;-3.46;66.55;100153.25;5096494;28;20047;-76
2021/12/21 04:36:04;;;;;;;10.77;3.95;;;;;;;-3.47;66.98;100156.75;5096411;28;20047;-76
2021/12/21 04:38:35;;;;;;;10.70;4.00;;;;;;;-3.43;67.76;100162.94;5096194;28;20040;-75
2021/12/21 04:41:08;;;;;;;11.20;4.00;;;;;;;-3.41;68.23;100163.84;5103073;28;20067;-75
2021/12/21 04:43:36;;;;;;;11.07;4.25;;;;;;;-3.51;67.71;100174.31;5118447;28;20051;-77
2021/12/21 04:46:04;;;;;;;10.48;4.43;;;;;;;-3.45;67.76;100170.84;5116573;28;20048;-75
2021/12/21 04:48:32;;;;;;;10.88;4.78;;;;;;;-3.47;67.97;100175.25;5116397;28;20504;-77
2021/12/21 04:51:02;;;;;;;10.20;4.07;;;;;;;-3.46;68.23;100178.78;5116188;28;20545;-77
2021/12/21 04:53:29;;;;;;;14.48;5.57;;;;;;;-3.48;67.78;100191.97;5116337;28;20043;-77
2021/12/21 04:55:56;;;;;;;13.15;4.75;;;;;;;-3.65;69.51;100194.50;5115676;28;20505;-76
2021/12/21 04:58:24;;;;;;;9.43;4.30;;;;;;;-3.45;68.90;100194.63;5116151;28;20438;-77
2021/12/21 05:00:52;;;;;;;10.88;4.82;;;;;;;-3.39;69.86;100201.72;5116234;28;20043;-76
2021/12/21 05:03:20;;;;;;;9.77;4.30;;;;;;;-3.32;68.92;100199.97;5116293;28;20051;-76
2021/12/21 05:05:47;;;;;;;10.90;4.30;;;;;;;-3.29;68.77;100205.28;5116176;28;20077;-76
2021/12/21 05:08:22;;;;;;;10.73;4.45;;;;;;;-3.44;69.21;100204.31;5116053;28;20374;-77
2021/12/21 05:10:54;;;;;;;10.60;4.72;;;;;;;-3.59;68.92;100206.88;5117574;28;20405;-76
2021/12/21 05:13:23;;;;;;;11.55;4.75;;;;;;;-3.51;68.82;100205.16;5096294;28;20052;-76
2021/12/21 05:15:50;;;;;;;11.02;4.53;;;;;;;-3.59;70.16;100207.72;5095370;28;20055;-76
2021/12/21 05:18:18;;;;;;;12.95;4.28;;;;;;;-3.53;69.28;100201.63;5095388;28;20052;-76
2021/12/21 05:20:46;;;;;;;9.48;4.07;;;;;;;-3.51;70.01;100215.72;5110396;28;20058;-76
2021/12/21 05:23:14;;;;;;;11.07;4.70;;;;;;;-3.62;69.37;100218.28;5115353;28;20481;-75
2021/12/21 05:25:43;;;;;;;10.25;4.30;;;;;;;-3.69;69.55;100216.47;5115794;28;20047;-76
2021/12/21 05:28:12;;;;;;;9.65;4.22;;;;;;;-3.66;68.89;100221.75;5115618;28;20066;-75
2021/12/21 05:30:41;;;;;;;9.02;4.00;;;;;;;-3.67;68.01;100226.19;5114541;28;20043;-76
2021/12/21 05:33:09;;;;;;;12.15;4.50;;;;;;;-3.69;69.64;100232.31;5115568;28;20071;-76
2021/12/21 05:35:37;;;;;;;10.88;4.38;;;;;;;-3.68;68.95;100234.94;5115588;28;20051;-78
2021/12/21 05:38:07;;;;;;;10.25;4.45;;;;;;;-3.76;68.91;100238.41;5115049;28;20057;-76
2021/12/21 05:40:36;;;;;;;10.52;4.43;;;;;;;-3.76;68.74;100243.69;5097588;28;20078;-77
2021/12/21 05:43:06;;;;;;;17.73;11.60;;;;;;;-3.84;69.71;100254.19;5115237;28;20048;-76
2021/12/21 05:45:33;;;;;;;9.75;4.68;;;;;;;-3.93;69.20;100254.97;5115656;28;20365;-78
2021/12/21 05:48:01;;;;;;;10.60;4.22;;;;;;;-3.95;69.09;100260.25;5115355;28;20051;-76
2021/12/21 05:50:29;;;;;;;11.05;4.93;;;;;;;-4.01;69.79;100264.56;5114772;28;20048;-76
2021/12/21 05:52:56;;;;;;;9.57;4.40;;;;;;;-3.93;68.67;100270.81;5114957;28;20043;-76
2021/12/21 05:55:24;;;;;;;10.38;4.50;;;;;;;-3.89;68.91;100269.97;5115164;28;20048;-76
2021/12/21 05:57:51;;;;;;;13.15;5.35;;;;;;;-3.96;68.92;100271.69;5114998;28;20039;-75
2021/12/21 06:00:22;;;;;;;16.40;7.20;;;;;;;-3.93;68.89;100284.00;5114945;28;20480;-76
2021/12/21 06:02:50;;;;;;;11.30;4.90;;;;;;;-3.97;68.92;100285.75;5117100;28;20051;-78
2021/12/21 06:05:17;;;;;;;13.48;5.03;;;;;;;-4.05;69.24;100291.81;5096899;28;20053;-75
2021/12/21 06:07:48;;;;;;;11.45;5.20;;;;;;;-4.01;69.28;100289.22;5114459;28;20077;-74
2021/12/21 06:10:21;;;;;;;9.60;4.57;;;;;;;-4.04;68.75;100294.47;5116437;28;20039;-77
2021/12/21 06:13:19;;;;;;;12.43;5.13;;;;;;;-4.03;67.87;100300.63;5114715;28;20040;-75
2021/12/21 06:16:07;;;;;;;12.45;5.25;;;;;;;-3.98;68.40;100293.63;5114581;28;20047;-76
2021/12/21 06:27:01;;;;;;;15.25;5.70;;;;;;;-4.15;69.32;100307.53;5033293;28;20076;-76
2021/12/21 06:29:29;;;;;;;13.15;5.07;;;;;;;-4.08;68.68;100308.47;5031877;28;20107;-76
2021/12/21 06:31:59;;;;;;;14.43;5.65;;;;;;;-4.26;69.40;100312.69;5031714;28;20056;-76
2021/12/21 06:34:26;;;;;;;13.32;4.53;;;;;;;-4.24;70.09;100312.72;5031744;28;20491;-79
2021/12/21 06:36:55;;;;;;;12.60;4.50;;;;;;;-4.27;69.06;100318.84;5031492;28;20057;-81
2021/12/21 06:39:23;;;;;;;17.73;6.25;;;;;;;-4.32;70.05;100322.28;5022449;28;20089;-76
2021/12/21 06:41:50;;;;;;;12.20;4.85;;;;;;;-4.33;69.66;100324.03;5023915;28;20461;-83
2021/12/21 06:44:18;;;;;;;11.35;4.88;;;;;;;-4.41;70.12;100326.56;5031802;28;20049;-83
2021/12/21 06:47:03;;;;;;;11.50;4.85;;;;;;;-4.38;70.80;100326.59;5026908;28;20045;-77
2021/12/21 06:52:18;;;;;;;42.08;14.63;;;;;;;-4.25;70.29;100326.78;5020225;28;20057;-79
2021/12/21 06:54:46;;;;;;;81.75;24.63;;;;;;;-4.21;69.36;100323.31;5027310;28;20071;-78
2021/12/21 06:57:13;;;;;;;54.38;19.60;;;;;;;-4.16;68.82;100331.25;5123128;27;20047;-80
2021/12/21 06:59:41;;;;;;;62.80;22.52;;;;;;;-4.14;69.60;100330.44;5122927;27;20043;-79
2021/12/21 07:02:10;;;;;;;42.42;12.77;;;;;;;-4.07;68.81;100334.91;5121771;27;20043;-84
2021/12/21 07:04:39;;;;;;;28.02;9.18;;;;;;;-4.04;68.91;100338.44;5122565;27;20035;-83
2021/12/21 07:07:09;;;;;;;27.42;8.93;;;;;;;-4.01;69.66;100335.84;5121300;27;20055;-81
2021/12/21 07:09:41;;;;;;;22.20;7.20;;;;;;;-3.98;69.90;100341.13;5124313;27;20062;-79
2021/12/21 07:12:27;;;;;;;20.48;7.85;;;;;;;-4.00;68.74;100341.13;5123971;27;20039;-80
2021/12/21 07:20:26;;;;;;;20.88;7.03;;;;;;;-3.90;68.36;100355.31;5123277;27;20043;-81
2021/12/21 07:22:53;;;;;;;22.90;8.52;;;;;;;-3.84;68.54;100362.41;5122161;27;20054;-81
2021/12/21 07:25:21;;;;;;;29.65;10.98;;;;;;;-3.89;69.13;100359.72;5122035;27;20042;-77
2021/12/21 07:27:48;;;;;;;59.08;23.70;;;;;;;-3.99;68.82;100361.38;5123470;27;20445;-80
2021/12/21 07:30:16;;;;;;;33.78;11.13;;;;;;;-3.81;69.53;100370.38;5122393;27;20039;-80
2021/12/21 07:32:43;;;;;;;45.28;14.93;;;;;;;-3.83;68.49;100373.00;5121523;27;20043;-80
2021/12/21 07:35:11;;;;;;;75.82;19.55;;;;;;;-3.79;68.29;100366.88;5122949;27;20091;-77
2021/12/21 07:37:40;;;;;;;28.33;10.40;;;;;;;-3.84;68.66;100376.53;5122659;28;20126;-77
2021/12/21 07:40:09;;;;;;;25.40;9.63;;;;;;;-3.71;69.59;100376.63;5121081;27;20047;-77
2021/12/21 07:42:37;;;;;;;28.52;10.27;;;;;;;-3.82;68.88;100372.13;5127678;27;20672;-77
2021/12/21 07:45:05;;;;;;;22.30;8.75;;;;;;;-3.83;68.59;100366.81;5130016;27;20377;-79
2021/12/21 07:47:33;;;;;;;16.38;6.65;;;;;;;-3.72;69.29;100377.50;5129707;27;20412;-80
2021/12/21 07:50:01;;;;;;;19.00;8.02;;;;;;;-3.76;68.69;100371.28;5129700;27;20127;-79
2021/12/21 07:52:28;;;;;;;22.52;9.00;;;;;;;-3.73;68.22;100373.97;5130026;27;20061;-80
2021/12/21 07:54:57;;;;;;;15.50;6.43;;;;;;;-3.80;70.01;100380.97;5134405;27;20047;-79
2021/12/21 07:57:25;;;;;;;16.95;7.05;;;;;;;-3.74;68.96;100384.53;5134045;27;20096;-79
2021/12/21 07:59:53;;;;;;;17.23;8.00;;;;;;;-3.67;69.26;100386.38;5133854;27;20050;-78
2021/12/21 08:02:22;;;;;;;13.13;5.78;;;;;;;-3.60;68.00;100390.84;5134406;27;20043;-80
2021/12/21 08:04:52;;;;;;;12.18;5.20;;;;;;;-3.67;68.71;100391.66;5133760;27;20039;-79
2021/12/21 08:07:24;;;;;;;17.45;5.10;;;;;;;-3.59;68.68;100394.38;5134212;27;20385;-79
2021/12/21 08:09:54;;;;;;;13.45;5.75;;;;;;;-3.59;67.74;100392.59;5134464;27;20070;-78
2021/12/21 08:12:24;;;;;;;14.75;6.07;;;;;;;-3.56;67.27;100387.34;5134036;27;20069;-78
2021/12/21 08:14:52;;;;;;;16.45;6.22;;;;;;;-3.57;68.21;100398.78;5133996;27;20047;-78
2021/12/21 08:17:20;;;;;;;18.55;7.93;;;;;;;-3.38;67.07;100402.50;5133802;27;20051;-79
2021/12/21 08:19:48;;;;;;;25.58;10.15;;;;;;;-3.30;65.93;100397.28;5133820;27;20047;-80
2021/12/21 08:22:16;;;;;;;16.98;7.00;;;;;;;-3.39;66.41;100408.66;5133558;27;20495;-77
2021/12/21 08:24:45;;;;;;;13.30;5.40;;;;;;;-3.38;65.43;100402.50;5133775;27;20469;-79
2021/12/21 08:27:13;;;;;;;28.80;11.32;;;;;;;-3.28;66.53;100407.88;5133791;27;20043;-79
2021/12/21 08:29:41;;;;;;;15.07;6.72;;;;;;;-3.25;66.32;100408.78;5133775;27;20051;-79
2021/12/21 08:32:10;;;;;;;46.63;22.90;;;;;;;-3.23;65.50;100404.41;5133670;27;20051;-79
2021/12/21 08:34:37;;;;;;;32.60;15.93;;;;;;;-3.26;66.24;100414.94;5133374;27;20119;-78
2021/12/21 08:37:05;;;;;;;21.35;9.43;;;;;;;-3.16;65.72;100412.38;5133492;27;20047;-78
2021/12/21 08:39:39;;;;;;;18.20;8.80;;;;;;;-3.22;64.72;100408.81;5111459;27;20048;-78
2021/12/21 08:42:07;;;;;;;18.40;7.65;;;;;;;-3.22;64.84;100411.47;5107921;28;20039;-77
2021/12/21 08:44:35;;;;;;;18.33;7.80;;;;;;;-3.09;64.67;100409.81;5112724;28;20054;-78
2021/12/21 08:47:05;;;;;;;23.65;11.45;;;;;;;-3.23;64.06;100411.47;5112223;28;20527;-78
2021/12/21 08:49:32;;;;;;;33.95;13.20;;;;;;;-3.07;64.62;100423.03;5112475;28;20063;-78
2021/12/21 08:52:00;;;;;;;15.45;6.25;;;;;;;-3.16;64.00;100412.38;5113199;28;20108;-80
2021/12/21 08:54:27;;;;;;;15.75;6.30;;;;;;;-3.04;63.55;100417.81;5112921;28;20040;-77
2021/12/21 08:56:55;;;;;;;22.80;9.20;;;;;;;-3.04;64.65;100411.63;5112636;28;20059;-77
2021/12/21 08:59:22;;;;;;;31.20;11.18;;;;;;;-2.98;62.95;100412.56;5112263;28;20502;-78
2021/12/21 09:01:52;;;;;;;16.73;7.35;;;;;;;-2.89;63.21;100406.44;5112196;28;20048;-80
2021/12/21 09:04:22;;;;;;;11.80;4.78;;;;;;;-2.95;63.25;100420.50;5111587;28;20043;-77
2021/12/21 09:06:49;;;;;;;25.13;10.35;;;;;;;-2.91;63.11;100409.09;5112274;28;20507;-77
2021/12/21 09:09:17;;;;;;;33.80;12.43;;;;;;;-2.89;61.99;100418.78;5112399;28;20043;-78
2021/12/21 09:11:48;;;;;;;19.08;8.65;;;;;;;-2.90;61.79;100420.53;5111923;28;20057;-78
2021/12/21 09:14:17;;;;;;;21.00;9.82;;;;;;;-2.94;62.01;100424.94;5112230;28;20043;-77
2021/12/21 09:16:44;;;;;;;26.85;10.20;;;;;;;-2.85;61.31;100410.91;5111786;28;20047;-77
2021/12/21 09:19:12;;;;;;;39.38;15.43;;;;;;;-2.87;61.77;100406.47;5112271;28;20047;-78
2021/12/21 09:21:41;;;;;;;42.05;15.10;;;;;;;-2.85;61.57;100405.63;5112202;28;20044;-77
2021/12/21 09:24:09;;;;;;;34.03;14.60;;;;;;;-2.80;61.18;100400.34;5112297;28;20559;-79
2021/12/21 09:26:36;;;;;;;20.55;8.63;;;;;;;-2.81;59.35;100395.94;5112430;28;20071;-77
2021/12/21 09:29:04;;;;;;;22.67;9.27;;;;;;;-2.79;59.85;100402.09;5112042;28;20050;-77
2021/12/21 09:31:32;;;;;;;27.00;12.32;;;;;;;-2.64;60.13;100391.66;5111704;28;20054;-79
2021/12/21 09:33:59;;;;;;;35.05;13.57;;;;;;;-2.62;59.82;100400.50;5111581;28;20496;-77
2021/12/21 09:36:29;;;;;;;24.10;9.85;;;;;;;-2.71;59.55;100395.09;5111941;28;20039;-77
2021/12/21 09:38:59;;;;;;;39.42;16.33;;;;;;;-2.59;60.71;100393.44;5105818;28;20048;-77
2021/12/21 09:41:26;;;;;;;14.52;6.30;;;;;;;-2.57;59.01;100395.19;5100713;28;20055;-76
2021/12/21 09:43:54;;;;;;;29.10;13.25;;;;;;;-2.53;59.70;100404.06;5111998;28;20093;-77
2021/12/21 09:46:21;;;;;;;30.10;11.43;;;;;;;-2.53;59.81;100398.78;5111012;28;20055;-77
2021/12/21 09:48:49;;;;;;;41.55;15.85;;;;;;;-2.53;60.37;100406.72;5114838;27;20036;-78
2021/12/21 09:51:16;;;;;;;22.90;10.18;;;;;;;-2.46;57.54;100403.22;5131543;27;20334;-77
2021/12/21 09:53:44;;;;;;;28.77;11.07;;;;;;;-2.47;56.93;100409.38;5132002;27;20092;-79
2021/12/21 09:56:14;;;;;;;16.77;6.93;;;;;;;-2.54;57.12;100407.59;5132192;27;20052;-78
2021/12/21 09:58:41;;;;;;;17.83;8.05;;;;;;;-2.47;55.53;100409.38;5131216;27;20046;-78
2021/12/21 10:01:09;;;;;;;20.50;7.78;;;;;;;-2.41;55.45;100411.19;5128721;27;20107;-79
2021/12/21 10:03:36;;;;;;;14.55;7.60;;;;;;;-2.48;55.63;100408.47;5131554;27;20054;-74
2021/12/21 10:06:06;;;;;;;20.40;9.13;;;;;;;-2.39;56.10;100398.84;5131658;27;20054;-81
2021/12/21 10:08:34;;;;;;;20.70;8.65;;;;;;;-2.53;56.20;100404.06;5131411;27;20050;-79
2021/12/21 10:11:04;;;;;;;20.73;8.35;;;;;;;-2.51;54.31;100391.72;5131017;27;20050;-78
2021/12/21 10:13:36;;;;;;;18.45;8.80;;;;;;;-2.41;55.89;100387.38;5126136;27;20044;-79
2021/12/21 10:16:07;;;;;;;22.50;7.95;;;;;;;-2.38;54.41;100382.97;5124209;27;20417;-80
2021/12/21 10:18:38;;;;;;;24.50;8.38;;;;;;;-2.43;54.00;100379.41;5105682;27;20043;-80
2021/12/21 10:21:06;;;;;;;21.33;8.25;;;;;;;-2.33;53.05;100385.66;5122388;27;20036;-80
2021/12/21 10:23:38;;;;;;;28.95;10.43;;;;;;;-2.31;53.86;100383.00;5123371;27;20031;-80
2021/12/21 10:26:08;;;;;;;25.33;10.05;;;;;;;-2.38;53.44;100387.41;5124791;27;20043;-79
2021/12/21 10:28:39;;;;;;;21.17;9.48;;;;;;;-2.22;53.49;100388.38;5123486;27;20477;-79
2021/12/21 10:31:08;;;;;;;18.02;7.82;;;;;;;-2.20;51.89;100381.31;5120860;27;20043;-81
2021/12/21 10:33:37;;;;;;;16.75;6.05;;;;;;;-2.36;51.31;100378.56;5122928;27;20036;-81
2021/12/21 10:36:06;;;;;;;22.15;10.48;;;;;;;-2.41;50.75;100382.97;5106123;27;20043;-81
2021/12/21 10:38:37;;;;;;;19.40;7.38;;;;;;;-2.13;51.93;100377.81;5122394;27;20039;-81
2021/12/21 10:41:09;;;;;;;21.92;9.45;;;;;;;-2.27;51.75;100371.53;5123101;27;20043;-79
2021/12/21 10:43:39;;;;;;;22.95;9.52;;;;;;;-2.36;52.59;100364.47;5114637;27;20097;-81
2021/12/21 10:46:07;;;;;;;15.82;6.90;;;;;;;-2.19;53.34;100356.59;5114531;27;20047;-80
2021/12/21 10:48:36;;;;;;;15.07;6.15;;;;;;;-2.34;53.79;100358.28;5129896;27;20076;-81
2021/12/21 10:51:11;;;;;;;16.67;6.63;;;;;;;-2.11;53.27;100346.03;5122997;27;20416;-80
2021/12/21 10:53:46;;;;;;;18.95;7.90;;;;;;;-2.08;53.58;100352.22;5121384;27;20039;-80
2021/12/21 10:56:18;;;;;;;27.17;9.48;;;;;;;-2.08;53.63;100346.94;5121610;27;20044;-81
2021/12/21 10:58:47;;;;;;;14.73;6.07;;;;;;;-1.95;53.17;100345.22;5122312;27;20043;-79
2021/12/21 11:01:19;;;;;;;22.80;8.38;;;;;;;-1.92;52.70;100345.22;5123708;27;20046;-77
2021/12/21 11:03:51;;;;;;;18.80;6.88;;;;;;;-2.00;52.92;100351.38;5123627;27;20040;-78
2021/12/21 11:06:22;;;;;;;22.92;8.82;;;;;;;-2.04;53.76;100346.06;5121090;27;20043;-80
2021/12/21 11:08:52;;;;;;;12.35;5.20;;;;;;;-2.01;52.01;100339.91;5122233;27;20035;-80
2021/12/21 11:11:27;;;;;;;14.32;4.78;;;;;;;-1.83;52.15;100348.78;5119833;27;20034;-81
2021/12/21 11:14:08;;;;;;;48.08;16.27;;;;;;;-2.00;52.80;100348.72;5121617;27;20067;-74
2021/12/21 11:16:39;;;;;;;110.25;34.60;;;;;;;-1.85;53.53;100346.09;5122015;27;20417;-80
2021/12/21 11:19:07;;;;;;;225.93;71.90;;;;;;;-1.94;54.74;100343.44;5123467;27;20047;-77
2021/12/21 11:21:35;;;;;;;77.80;27.75;;;;;;;-1.93;54.81;100353.16;5123503;27;20090;-84
2021/12/21 11:24:05;;;;;;;24.90;8.73;;;;;;;-1.85;53.56;100356.69;5131852;27;20043;-79
2021/12/21 11:26:33;;;;;;;19.73;7.03;;;;;;;-1.66;53.34;100362.06;5133407;27;20047;-79
2021/12/21 11:29:05;;;;;;;25.85;9.98;;;;;;;-1.58;51.56;100355.00;5132611;27;20043;-77
2021/12/21 11:31:38;;;;;;;19.08;6.95;;;;;;;-1.68;51.65;100359.38;5134879;27;20043;-80
2021/12/21 11:34:08;;;;;;;23.88;7.35;;;;;;;-1.63;52.50;100346.16;5115806;27;20047;-79
2021/12/21 11:39:21;;;;;;;60.25;17.10;;;;;;;-1.56;51.20;100355.88;5118291;27;20056;-77
2021/12/21 11:41:50;;;;;;;92.05;22.40;;;;;;;-1.55;51.45;100349.72;5115244;28;20043;-78
2021/12/21 11:44:23;;;;;;;36.88;13.40;;;;;;;-1.38;51.91;100351.50;5113239;28;20511;-79
2021/12/21 11:46:54;;;;;;;45.70;12.13;;;;;;;-1.39;51.88;100355.91;5113135;28;20048;-78
2021/12/21 11:49:31;;;;;;;63.15;16.70;;;;;;;-1.50;53.09;100345.28;5113284;28;20054;-78
2021/12/21 11:52:11;;;;;;;24.60;9.73;;;;;;;-1.35;51.26;100348.88;5113794;28;20040;-80
2021/12/21 11:54:50;;;;;;;22.80;9.02;;;;;;;-1.31;50.84;100342.69;5113885;28;20051;-81
2021/12/21 11:57:19;;;;;;;13.60;6.05;;;;;;;-1.46;50.67;100352.34;5113779;28;20054;-79
2021/12/21 11:59:47;;;;;;;29.70;9.48;;;;;;;-1.31;51.05;100350.63;5113231;28;20043;-79
2021/12/21 12:02:28;;;;;;;29.45;11.02;;;;;;;-1.26;50.76;100340.00;5113390;28;20066;-79
2021/12/21 12:04:56;;;;;;;37.35;11.73;;;;;;;-1.57;51.67;100346.16;5121277;28;20048;-80